Time;durP1;ratioP1;P1;durP2;ratioP2;P2;SDS_P1;SDS_P2;PMS_P1;PMS_P2;Temp;Humidity;BMP_temperature;BMP_pressure;BME280_temperature;BME280_humidity;BME280_pressure;Samples;Min_cycle;Max_cycle;Signal;HPM_P1;HPM_P2
2022/01/22 00:00:21;;;;;;;10.13;5.53;;;-1.20;99.90;;;;;;5052862;28;20056;-73
2022/01/22 00:02:48;;;;;;;11.05;6.82;;;-1.20;99.90;;;;;;5053783;28;20037;-73
2022/01/22 00:05:15;;;;;;;9.93;5.28;;;-1.20;99.90;;;;;;5072987;28;20044;-73
2022/01/22 00:07:41;;;;;;;13.82;5.45;;;-1.20;99.90;;;;;;5072997;28;20033;-73
2022/01/22 00:10:13;;;;;;;11.27;5.82;;;-1.20;99.90;;;;;;5073149;28;20032;-73
2022/01/22 00:15:09;;;;;;;11.13;5.65;;;-1.10;99.90;;;;;;5073195;28;20510;-73
2022/01/22 00:17:35;;;;;;;9.32;5.40;;;-1.10;99.90;;;;;;5073022;28;20471;-74
2022/01/22 00:20:01;;;;;;;12.32;5.70;;;-1.10;99.90;;;;;;5073333;28;20454;-73
2022/01/22 00:22:30;;;;;;;9.88;5.40;;;-1.20;99.90;;;;;;5065005;28;20055;-74
2022/01/22 00:24:59;;;;;;;10.73;5.88;;;-1.20;99.90;;;;;;5052889;28;20033;-74
2022/01/22 00:27:26;;;;;;;9.65;5.82;;;-1.20;99.90;;;;;;5052467;28;20364;-74
2022/01/22 00:29:52;;;;;;;10.43;5.63;;;-1.20;99.90;;;;;;5053099;28;20025;-73
2022/01/22 00:32:18;;;;;;;9.27;5.40;;;-1.10;99.90;;;;;;5066081;28;20506;-73
2022/01/22 00:34:44;;;;;;;12.93;6.60;;;-1.20;99.90;;;;;;5071353;28;20035;-73
2022/01/22 00:37:10;;;;;;;10.65;5.53;;;-1.20;99.90;;;;;;5088038;28;20055;-74
2022/01/22 00:39:36;;;;;;;10.23;4.63;;;-1.10;99.90;;;;;;5070980;28;20036;-73
2022/01/22 00:42:08;;;;;;;10.35;5.47;;;-1.10;99.90;;;;;;5052328;28;20049;-74
2022/01/22 00:44:34;;;;;;;10.18;4.85;;;-1.10;99.90;;;;;;5051191;28;20388;-73
2022/01/22 00:47:00;;;;;;;10.25;5.00;;;-1.10;99.90;;;;;;5052349;28;20037;-74
2022/01/22 00:49:26;;;;;;;10.65;5.50;;;-1.10;99.90;;;;;;5070873;28;20056;-73
2022/01/22 00:51:52;;;;;;;13.53;5.50;;;-1.10;99.90;;;;;;5051929;28;20401;-73
2022/01/22 00:54:17;;;;;;;9.13;5.33;;;-1.00;99.90;;;;;;5052574;28;20032;-74
2022/01/22 00:56:43;;;;;;;9.20;5.10;;;-1.00;99.90;;;;;;5052066;28;20513;-74
2022/01/22 00:59:09;;;;;;;11.27;5.40;;;-1.00;99.90;;;;;;5051878;28;20354;-74
2022/01/22 01:01:35;;;;;;;9.53;4.50;;;-1.00;99.90;;;;;;5051985;28;20021;-72
2022/01/22 01:04:02;;;;;;;9.80;4.80;;;-1.00;99.90;;;;;;5052241;28;20028;-73
2022/01/22 01:06:28;;;;;;;12.05;4.95;;;-1.00;99.90;;;;;;5051708;28;20021;-72
2022/01/22 01:08:54;;;;;;;10.60;4.88;;;-1.00;99.90;;;;;;5051250;28;20373;-73
2022/01/22 01:11:23;;;;;;;9.85;5.15;;;-1.00;99.90;;;;;;5051204;28;20780;-72
2022/01/22 01:13:55;;;;;;;8.55;4.60;;;-1.00;99.90;;;;;;5051873;28;20090;-73
2022/01/22 01:16:43;;;;;;;10.98;4.78;;;-1.00;99.90;;;;;;5051990;28;20040;-73
2022/01/22 01:35:20;;;;;;;9.57;3.80;;;-1.00;99.90;;;;;;5051533;28;20151;-72
2022/01/22 01:37:46;;;;;;;11.55;4.70;;;-1.00;99.90;;;;;;5057171;28;20380;-73
2022/01/22 01:40:16;;;;;;;7.50;4.00;;;0.30;99.90;;;;;;5062663;28;20043;-73
2022/01/22 01:42:51;;;;;;;7.07;3.55;;;-1.00;99.90;;;;;;5069902;28;20056;-73
2022/01/22 01:45:17;;;;;;;7.13;3.88;;;-1.00;99.90;;;;;;5073160;28;20063;-73
2022/01/22 01:47:46;;;;;;;10.18;3.80;;;-1.00;99.90;;;;;;5051090;28;20032;-73
2022/01/22 01:50:12;;;;;;;7.38;3.58;;;-1.00;99.90;;;;;;5051167;28;20052;-74
2022/01/22 01:52:52;;;;;;;8.63;4.57;;;-1.10;99.90;;;;;;5049971;28;20033;-73
2022/01/22 01:55:22;;;;;;;9.57;3.97;;;-1.00;99.90;;;;;;5066685;28;20351;-73
2022/01/22 01:57:48;;;;;;;10.00;3.85;;;-1.10;99.90;;;;;;5051607;28;20025;-73
2022/01/22 02:00:18;;;;;;;7.43;3.67;;;-1.10;99.90;;;;;;5051372;28;20032;-73
2022/01/22 02:02:46;;;;;;;6.40;3.55;;;-1.10;99.90;;;;;;5050941;28;20396;-73
2022/01/22 02:05:12;;;;;;;7.63;3.80;;;-1.10;99.90;;;;;;5066747;28;20044;-73
2022/01/22 02:07:41;;;;;;;9.73;3.30;;;-1.10;99.90;;;;;;5051284;28;20052;-73
2022/01/22 02:10:09;;;;;;;6.50;3.22;;;-1.10;99.90;;;;;;5051338;28;20570;-73
2022/01/22 02:23:45;;;;;;;9.02;3.75;;;-1.10;99.90;;;;;;5054733;28;20079;-73
2022/01/22 02:26:13;;;;;;;8.77;3.33;;;-1.10;99.90;;;;;;5054867;28;20112;-73
2022/01/22 02:28:41;;;;;;;9.10;4.00;;;-1.10;99.90;;;;;;5054732;28;20445;-72
2022/01/22 02:36:20;;;;;;;8.98;4.10;;;-1.10;99.90;;;;;;5074546;28;20545;-73
2022/01/22 02:41:18;;;;;;;8.45;4.35;;;-1.10;99.90;;;;;;5054553;28;20037;-74
2022/01/22 02:43:46;;;;;;;7.82;3.85;;;-1.20;99.90;;;;;;5053444;28;20384;-73
2022/01/22 02:46:14;;;;;;;7.22;4.72;;;-1.20;99.90;;;;;;5054773;28;20036;-73
2022/01/22 02:48:40;;;;;;;7.45;3.08;;;-1.20;99.90;;;;;;5067026;28;20064;-73
2022/01/22 02:51:05;;;;;;;9.93;4.00;;;-1.10;99.90;;;;;;5074365;28;20455;-73
2022/01/22 02:53:31;;;;;;;9.20;4.37;;;-1.20;99.90;;;;;;5089978;28;20080;-73
2022/01/22 02:55:57;;;;;;;6.43;3.27;;;-1.20;99.90;;;;;;5074520;28;20031;-73
2022/01/22 02:58:24;;;;;;;8.05;4.10;;;-1.10;99.90;;;;;;5070191;28;20132;-73
2022/01/22 03:00:50;;;;;;;;;;;-1.10;99.90;;;;;;5054763;28;20052;-73
2022/01/22 03:03:15;;;;;;;6.80;3.22;;;-1.10;99.90;;;;;;5052749;28;20270;-73
2022/01/22 03:05:41;;;;;;;5.53;3.00;;;-1.10;99.90;;;;;;5070216;28;20037;-73
2022/01/22 03:08:07;;;;;;;9.90;3.53;;;-1.00;99.90;;;;;;5054055;28;20067;-72
2022/01/22 03:10:34;;;;;;;9.68;3.28;;;-1.00;99.90;;;;;;5054066;28;20500;-72
2022/01/22 03:21:16;;;;;;;6.55;3.13;;;-1.00;99.90;;;;;;5054346;28;20029;-73
2022/01/22 03:29:08;;;;;;;5.22;2.50;;;-0.90;99.90;;;;;;5053658;28;20048;-72
2022/01/22 03:31:36;;;;;;;6.00;2.38;;;-1.00;99.90;;;;;;5069059;28;20056;-72
2022/01/22 03:34:01;;;;;;;5.95;2.67;;;-1.00;99.90;;;;;;5072780;28;20094;-73
2022/01/22 03:36:29;;;;;;;9.57;3.67;;;-0.90;99.90;;;;;;5089182;28;20028;-74
2022/01/22 03:38:55;;;;;;;6.20;2.65;;;-0.90;99.90;;;;;;5089124;28;20360;-72
2022/01/22 03:41:23;;;;;;;6.10;2.47;;;-0.90;99.90;;;;;;5073606;28;20041;-74
2022/01/22 03:43:52;;;;;;;6.90;3.00;;;-0.90;99.90;;;;;;5071554;28;20040;-74
2022/01/22 03:46:18;;;;;;;6.13;2.90;;;-0.80;99.90;;;;;;5073629;28;20039;-74
2022/01/22 03:48:47;;;;;;;7.78;3.38;;;-0.90;99.90;;;;;;5073097;28;20443;-73
2022/01/22 03:51:12;;;;;;;7.22;3.58;;;-0.90;99.90;;;;;;5073396;28;20048;-73
2022/01/22 03:53:38;;;;;;;8.95;2.83;;;-0.90;99.90;;;;;;5053042;28;20025;-73
2022/01/22 03:56:06;;;;;;;8.40;2.47;;;-0.90;99.90;;;;;;5068634;28;20664;-73
2022/01/22 03:58:36;;;;;;;7.20;2.63;;;-0.90;99.90;;;;;;5053283;28;20021;-73
2022/01/22 04:03:58;;;;;;;7.60;3.13;;;-1.00;99.90;;;;;;5055431;28;20572;-73
2022/01/22 04:08:59;;;;;;;5.85;2.83;;;-1.00;99.90;;;;;;5052657;28;20033;-72
2022/01/22 04:11:25;;;;;;;6.40;3.30;;;-0.90;99.90;;;;;;5052791;28;20025;-72
2022/01/22 04:13:57;;;;;;;5.43;2.97;;;-0.90;99.90;;;;;;5067850;28;20487;-72
2022/01/22 04:16:23;;;;;;;7.22;3.13;;;-0.90;99.90;;;;;;5058200;28;20116;-74
2022/01/22 04:27:12;;;;;;;6.95;3.13;;;-0.80;99.90;;;;;;5053033;28;20083;-72
2022/01/22 04:29:38;;;;;;;7.03;2.63;;;-0.90;99.90;;;;;;5052197;28;20075;-73
2022/01/22 04:32:05;;;;;;;7.90;3.10;;;-0.90;99.90;;;;;;5052583;28;20103;-74
2022/01/22 04:34:31;;;;;;;4.85;2.70;;;-1.00;99.90;;;;;;5052218;28;20041;-72
2022/01/22 04:36:56;;;;;;;8.17;3.23;;;-1.00;99.90;;;;;;5051905;28;20036;-73
2022/01/22 04:39:25;;;;;;;7.73;3.20;;;-1.00;99.90;;;;;;5052722;28;20369;-73
2022/01/22 04:41:52;;;;;;;8.55;3.13;;;-1.00;99.90;;;;;;5052369;28;20040;-73
2022/01/22 04:44:19;;;;;;;6.85;2.80;;;-1.10;99.90;;;;;;5052120;28;20032;-74
2022/01/22 04:57:22;;;;;;;11.27;4.70;;;-1.20;99.90;;;;;;5052360;28;20071;-73
2022/01/22 04:59:47;;;;;;;14.30;5.40;;;-1.30;99.90;;;;;;5052535;28;20496;-73
2022/01/22 05:02:13;;;;;;;14.30;5.90;;;-1.20;99.90;;;;;;5051772;28;20120;-74
2022/01/22 05:04:39;;;;;;;9.13;4.15;;;-1.20;99.90;;;;;;5080129;28;20127;-73
2022/01/22 05:07:05;;;;;;;11.10;5.07;;;-1.30;99.90;;;;;;5072072;28;20094;-74
2022/01/22 05:09:31;;;;;;;8.57;3.97;;;-1.30;99.90;;;;;;5072129;28;20043;-74
2022/01/22 05:11:57;;;;;;;12.83;4.80;;;-1.30;99.90;;;;;;5071792;28;20032;-73
2022/01/22 05:14:25;;;;;;;14.48;5.80;;;-1.30;99.90;;;;;;5051569;28;20466;-74
2022/01/22 05:16:54;;;;;;;9.98;4.47;;;-1.30;99.90;;;;;;5051871;28;20059;-74
2022/01/22 05:22:04;;;;;;;7.93;4.07;;;-1.30;99.90;;;;;;5051701;28;20031;-74
2022/01/22 05:24:33;;;;;;;8.70;3.70;;;-1.30;99.90;;;;;;5051844;28;20021;-74
2022/01/22 05:37:15;;;;;;;7.93;3.83;;;-1.20;99.90;;;;;;5051411;28;20074;-74
2022/01/22 05:39:41;;;;;;;7.97;4.00;;;-1.20;99.90;;;;;;5051194;28;20453;-74
2022/01/22 05:42:09;;;;;;;7.90;3.67;;;-1.20;99.90;;;;;;5051550;28;20648;-74
2022/01/22 05:44:35;;;;;;;7.70;3.30;;;-1.20;99.90;;;;;;5051629;28;20025;-74
2022/01/22 05:47:05;;;;;;;6.85;3.10;;;-1.20;99.90;;;;;;5066873;28;20469;-74
2022/01/22 05:49:34;;;;;;;5.80;2.67;;;-1.20;99.90;;;;;;5050653;28;20045;-74
2022/01/22 05:52:02;;;;;;;6.95;2.50;;;-1.20;99.90;;;;;;5051094;28;20064;-74
2022/01/22 05:54:48;;;;;;;8.10;3.63;;;-1.20;99.90;;;;;;5051200;28;20483;-74
2022/01/22 05:59:58;;;;;;;7.40;2.97;;;-1.10;99.90;;;;;;5052081;28;20087;-73
2022/01/22 06:02:24;;;;;;;7.82;3.47;;;-1.20;99.90;;;;;;5051770;28;20033;-73
2022/01/22 06:04:50;;;;;;;9.25;2.83;;;-1.20;99.90;;;;;;5051564;28;20029;-73
2022/01/22 06:07:16;;;;;;;6.28;2.78;;;-1.20;99.90;;;;;;5049474;28;20044;-73
2022/01/22 06:10:03;;;;;;;8.70;3.20;;;-1.20;99.90;;;;;;5051386;28;20044;-73
2022/01/22 06:15:29;;;;;;;6.82;3.35;;;-1.20;99.90;;;;;;5048348;28;20073;-73
2022/01/22 06:17:55;;;;;;;9.47;2.87;;;-1.20;99.90;;;;;;5050541;28;20044;-73
2022/01/22 06:20:20;;;;;;;7.57;3.00;;;-0.20;99.90;;;;;;5050898;28;20610;-74
2022/01/22 06:22:46;;;;;;;5.23;2.73;;;-1.10;99.90;;;;;;5049765;28;20032;-73
2022/01/22 06:25:12;;;;;;;7.40;3.47;;;-1.10;99.90;;;;;;5059009;28;20458;-74
2022/01/22 06:27:38;;;;;;;6.03;2.65;;;-1.10;99.90;;;;;;5070777;28;20035;-73
2022/01/22 06:30:05;;;;;;;5.57;2.13;;;-1.10;99.90;;;;;;5070966;28;20052;-73
2022/01/22 06:32:30;;;;;;;6.55;2.95;;;-1.10;99.90;;;;;;5070910;28;20048;-74
2022/01/22 06:34:56;;;;;;;5.63;3.00;;;-1.10;99.90;;;;;;5054127;28;20036;-74
2022/01/22 06:37:22;;;;;;;5.70;2.67;;;-1.10;99.90;;;;;;5069586;28;20056;-73
2022/01/22 06:42:39;;;;;;;6.20;2.70;;;-1.10;99.90;;;;;;5058764;28;20143;-73
2022/01/22 06:45:06;;;;;;;4.27;2.13;;;-1.00;99.90;;;;;;5078590;28;20627;-73
2022/01/22 06:47:32;;;;;;;5.63;2.53;;;-1.00;99.90;;;;;;5070756;28;20439;-73
2022/01/22 06:49:58;;;;;;;5.88;2.55;;;-1.00;99.90;;;;;;5085878;28;20048;-73
2022/01/22 06:52:24;;;;;;;5.67;2.30;;;-0.90;99.90;;;;;;5070960;28;20037;-74
2022/01/22 06:54:50;;;;;;;6.30;2.35;;;-0.90;99.90;;;;;;5066113;28;20772;-73
2022/01/22 06:57:16;;;;;;;8.63;2.43;;;-0.90;99.90;;;;;;5050877;28;20044;-73
2022/01/22 06:59:42;;;;;;;9.23;2.33;;;-0.90;99.90;;;;;;5051241;28;20087;-73
2022/01/22 07:02:08;;;;;;;5.00;2.33;;;-0.90;99.90;;;;;;5050623;28;20277;-74
2022/01/22 07:04:37;;;;;;;6.85;2.78;;;-0.80;99.90;;;;;;5050423;28;20048;-73
2022/01/22 07:07:10;;;;;;;5.65;2.90;;;-0.90;99.90;;;;;;5050626;28;20021;-75
2022/01/22 07:09:36;;;;;;;5.63;2.72;;;-0.90;99.90;;;;;;5052375;28;20118;-73
2022/01/22 07:12:04;;;;;;;6.05;3.08;;;-0.90;99.90;;;;;;5054001;28;20097;-74
2022/01/22 07:14:29;;;;;;;6.75;2.92;;;-0.90;99.90;;;;;;5054808;28;20407;-73
2022/01/22 07:16:55;;;;;;;6.47;3.27;;;-0.80;99.90;;;;;;5054102;28;20025;-73
2022/01/22 07:19:21;;;;;;;9.77;3.33;;;-0.80;99.90;;;;;;5054081;28;20698;-73
2022/01/22 07:21:57;;;;;;;9.05;3.30;;;-0.80;99.90;;;;;;5053875;28;20032;-73
2022/01/22 07:24:23;;;;;;;6.50;2.90;;;-0.80;99.90;;;;;;5069245;28;20033;-74
2022/01/22 07:26:55;;;;;;;11.45;3.15;;;-0.80;99.90;;;;;;5054110;28;20079;-74
2022/01/22 07:29:22;;;;;;;8.07;3.10;;;-0.90;99.90;;;;;;5069254;28;20360;-73
2022/01/22 07:31:48;;;;;;;4.90;2.63;;;-0.90;99.90;;;;;;5086112;28;20040;-73
2022/01/22 07:34:15;;;;;;;4.18;2.38;;;-0.90;99.90;;;;;;5089688;28;20060;-73
2022/01/22 07:36:41;;;;;;;6.93;2.40;;;-0.90;99.90;;;;;;5073791;28;20037;-74
2022/01/22 07:39:07;;;;;;;6.07;2.53;;;-0.90;99.90;;;;;;5088229;28;20020;-74
2022/01/22 07:41:33;;;;;;;6.03;2.63;;;-0.80;99.90;;;;;;5073574;28;20036;-74
2022/01/22 07:43:59;;;;;;;7.57;2.90;;;-0.80;99.90;;;;;;5073964;28;20089;-75
2022/01/22 07:46:24;;;;;;;5.47;2.33;;;-0.80;99.90;;;;;;5089268;28;20048;-73
2022/01/22 07:48:50;;;;;;;6.83;2.47;;;-0.80;99.90;;;;;;5078394;28;20060;-74
2022/01/22 07:51:17;;;;;;;6.23;2.43;;;-0.70;99.90;;;;;;5052040;28;20033;-73
2022/01/22 07:53:44;;;;;;;;;;;-0.70;99.90;;;;;;5054165;28;20021;-73
2022/01/22 07:56:13;;;;;;;8.85;3.33;;;-0.70;99.90;;;;;;5053279;28;19915;-73
2022/01/22 07:58:40;;;;;;;7.70;2.70;;;-0.70;99.90;;;;;;5066681;28;20127;-73
2022/01/22 08:01:06;;;;;;;6.07;2.45;;;-0.70;99.90;;;;;;5073796;28;20021;-73
2022/01/22 08:03:32;;;;;;;7.28;2.75;;;-0.80;99.90;;;;;;5088571;28;20321;-75
2022/01/22 08:05:57;;;;;;;7.97;2.53;;;-0.80;99.90;;;;;;5070188;28;20158;-73
2022/01/22 08:08:23;;;;;;;7.23;3.10;;;-0.80;99.90;;;;;;5051889;28;20309;-73
2022/01/22 08:10:49;;;;;;;5.27;2.90;;;-0.70;99.90;;;;;;5053413;28;20039;-74
2022/01/22 08:13:17;;;;;;;5.47;2.60;;;-0.70;99.90;;;;;;5052961;28;20029;-73
2022/01/22 08:15:43;;;;;;;7.45;2.35;;;-0.70;99.90;;;;;;5053194;28;20021;-74
2022/01/22 08:18:09;;;;;;;6.00;2.20;;;-0.60;99.90;;;;;;5053017;28;20365;-74
2022/01/22 08:20:34;;;;;;;6.13;3.10;;;-0.50;99.90;;;;;;5067534;28;20416;-74
2022/01/22 08:23:00;;;;;;;5.47;2.87;;;-0.50;99.90;;;;;;5052714;28;20029;-73
2022/01/22 08:25:29;;;;;;;6.13;2.97;;;-0.40;99.90;;;;;;5052310;28;20483;-74
2022/01/22 08:30:32;;;;;;;7.38;3.17;;;-0.40;99.90;;;;;;5052394;28;20036;-74
2022/01/22 08:33:20;;;;;;;6.57;2.95;;;-0.40;99.90;;;;;;5068001;28;20025;-74
2022/01/22 08:35:53;;;;;;;9.10;2.92;;;-0.40;99.90;;;;;;5052093;28;20033;-73
2022/01/22 08:38:21;;;;;;;5.25;2.67;;;-0.40;99.90;;;;;;5054941;28;20021;-73
2022/01/22 08:40:46;;;;;;;5.72;2.83;;;-0.30;99.90;;;;;;5051985;28;20021;-73
2022/01/22 08:43:12;;;;;;;5.83;2.90;;;-0.20;99.90;;;;;;5067516;28;20435;-74
2022/01/22 08:45:38;;;;;;;5.63;2.60;;;-0.20;99.90;;;;;;5067216;28;20033;-74
2022/01/22 08:48:04;;;;;;;8.70;2.93;;;-0.20;99.90;;;;;;5051731;28;20029;-73
2022/01/22 08:50:31;;;;;;;6.30;3.33;;;-0.20;99.90;;;;;;5052254;28;20278;-74
2022/01/22 08:52:57;;;;;;;6.60;3.30;;;-0.20;99.90;;;;;;5052299;28;20027;-74
2022/01/22 08:55:23;;;;;;;6.77;2.73;;;-0.20;99.90;;;;;;5052518;28;20024;-74
2022/01/22 08:57:51;;;;;;;7.77;3.33;;;-0.10;99.90;;;;;;5050265;28;20028;-74
2022/01/22 09:00:21;;;;;;;8.75;3.42;;;-0.10;99.90;;;;;;5052095;28;20025;-74
2022/01/22 09:02:48;;;;;;;7.32;3.08;;;-0.10;99.90;;;;;;5051570;28;20477;-74
2022/01/22 09:05:16;;;;;;;7.55;3.78;;;-0.10;99.90;;;;;;5051494;28;20036;-73
2022/01/22 09:07:44;;;;;;;7.13;3.53;;;-0.10;99.90;;;;;;5051799;28;20031;-74
2022/01/22 09:10:10;;;;;;;5.50;3.05;;;-0.20;99.90;;;;;;5051862;28;20162;-74
2022/01/22 09:12:35;;;;;;;8.00;3.63;;;-0.20;99.90;;;;;;5058006;28;20112;-73
2022/01/22 09:15:01;;;;;;;7.37;3.73;;;-0.10;99.90;;;;;;5052486;28;20037;-74
2022/01/22 09:17:28;;;;;;;8.68;3.78;;;-0.20;99.90;;;;;;5050329;28;20025;-74
2022/01/22 09:19:58;;;;;;;9.77;3.97;;;-0.20;99.90;;;;;;5052418;28;20112;-74
2022/01/22 09:22:25;;;;;;;8.00;3.63;;;-0.30;99.90;;;;;;5068753;28;20033;-73
2022/01/22 09:24:52;;;;;;;7.53;3.53;;;-0.20;99.90;;;;;;5072351;28;20035;-74
2022/01/22 09:27:19;;;;;;;7.30;3.45;;;-0.20;99.90;;;;;;5071706;28;20094;-75
2022/01/22 09:29:45;;;;;;;8.38;3.50;;;-0.10;99.90;;;;;;5067416;28;20048;-74
2022/01/22 09:32:11;;;;;;;9.05;3.22;;;0.00;99.90;;;;;;5050607;28;20029;-74
2022/01/22 09:34:37;;;;;;;7.30;3.40;;;0.10;99.90;;;;;;5051723;28;20036;-74
2022/01/22 09:37:04;;;;;;;8.35;3.90;;;0.10;99.90;;;;;;5051355;28;20044;-73
2022/01/22 09:39:30;;;;;;;7.75;3.53;;;0.00;99.90;;;;;;5049674;28;20124;-74
2022/01/22 09:41:55;;;;;;;7.07;3.17;;;0.00;99.90;;;;;;5066347;28;20513;-74
2022/01/22 09:44:21;;;;;;;10.27;3.53;;;0.00;99.90;;;;;;5051993;28;20368;-74
2022/01/22 09:46:47;;;;;;;6.87;3.20;;;-0.10;99.90;;;;;;5050163;28;20257;-74
2022/01/22 09:49:13;;;;;;;7.75;3.47;;;-0.10;99.90;;;;;;5050867;28;20095;-74
2022/01/22 09:51:40;;;;;;;6.97;3.30;;;-0.10;99.90;;;;;;5080912;28;20372;-73
2022/01/22 09:54:10;;;;;;;6.47;3.10;;;0.00;99.90;;;;;;5071988;28;20052;-73
2022/01/22 09:56:36;;;;;;;5.75;2.75;;;0.00;99.90;;;;;;5071397;28;20028;-74
2022/01/22 09:59:01;;;;;;;6.38;2.58;;;0.10;99.90;;;;;;5076969;28;20377;-74
2022/01/22 10:01:33;;;;;;;9.53;2.73;;;0.10;99.90;;;;;;5050942;28;20033;-75
2022/01/22 10:04:01;;;;;;;5.72;3.28;;;0.20;99.90;;;;;;5051231;28;20423;-74
2022/01/22 10:06:29;;;;;;;7.00;3.03;;;0.40;99.90;;;;;;5066089;28;20033;-74
2022/01/22 10:09:14;;;;;;;7.57;3.20;;;0.50;99.90;;;;;;5066036;28;20037;-74
2022/01/22 10:11:40;;;;;;;8.32;3.30;;;0.70;99.90;;;;;;5050682;28;20025;-74
2022/01/22 10:14:07;;;;;;;6.20;3.08;;;0.70;99.90;;;;;;5050784;28;20036;-74
2022/01/22 10:16:34;;;;;;;;;;;0.70;99.90;;;;;;5049652;28;20108;-74
2022/01/22 10:19:30;;;;;;;6.93;2.58;;;0.80;99.90;;;;;;5051341;28;19955;-74
2022/01/22 10:22:01;;;;;;;5.78;2.92;;;1.00;99.90;;;;;;5046669;28;20037;-74
2022/01/22 10:24:50;;;;;;;9.48;3.47;;;1.20;99.90;;;;;;5069394;28;20046;-75
2022/01/22 10:30:05;;;;;;;6.30;3.25;;;1.30;99.90;;;;;;5071394;28;20055;-74
2022/01/22 10:35:10;;;;;;;6.80;3.33;;;1.70;99.90;;;;;;5070912;28;20120;-73
2022/01/22 10:37:37;;;;;;;6.60;3.20;;;1.90;99.90;;;;;;5086165;28;20070;-73
2022/01/22 10:40:47;;;;;;;5.15;2.85;;;1.80;99.90;;;;;;5069931;28;20537;-73
2022/01/22 10:43:32;;;;;;;4.40;2.50;;;1.60;99.90;;;;;;5070984;28;20052;-73
2022/01/22 10:49:07;;;;;;;6.07;2.85;;;1.40;99.90;;;;;;5074292;28;20047;-74
2022/01/22 10:51:51;;;;;;;7.28;2.83;;;1.20;99.90;;;;;;5054102;28;20094;-73
2022/01/22 10:54:23;;;;;;;3.97;1.77;;;1.00;99.90;;;;;;5069972;28;20021;-75
2022/01/22 10:56:51;;;;;;;4.75;2.17;;;0.80;99.90;;;;;;5054657;28;20048;-75
2022/01/22 10:59:21;;;;;;;5.20;2.10;;;0.60;99.90;;;;;;5054626;28;20044;-73
2022/01/22 11:02:01;;;;;;;4.20;2.00;;;0.50;99.90;;;;;;5054515;28;20036;-73
2022/01/22 11:04:42;;;;;;;7.30;2.38;;;0.50;99.90;;;;;;5054882;28;20503;-74
2022/01/22 11:07:10;;;;;;;7.00;2.47;;;0.50;99.90;;;;;;5054109;28;20059;-73
2022/01/22 11:09:36;;;;;;;5.75;2.58;;;0.50;99.90;;;;;;5054864;28;20431;-73
2022/01/22 11:12:05;;;;;;;8.40;3.15;;;0.70;99.90;;;;;;5054103;28;20049;-73
2022/01/22 11:14:37;;;;;;;5.90;3.13;;;0.80;99.90;;;;;;5054502;28;20041;-73
2022/01/22 11:17:05;;;;;;;8.05;3.60;;;0.90;99.90;;;;;;5053785;28;20048;-73
2022/01/22 11:19:35;;;;;;;8.73;3.28;;;0.90;99.90;;;;;;5056492;28;20452;-74
2022/01/22 11:22:04;;;;;;;9.30;3.03;;;0.90;99.90;;;;;;5074222;28;20028;-75
2022/01/22 11:24:36;;;;;;;7.18;3.17;;;0.90;99.90;;;;;;5090059;28;20472;-74
2022/01/22 11:27:04;;;;;;;8.07;3.65;;;0.80;99.90;;;;;;5059347;28;20068;-76
2022/01/22 11:29:40;;;;;;;8.27;3.10;;;0.70;99.90;;;;;;5054005;28;20496;-75
2022/01/22 11:32:09;;;;;;;5.80;3.33;;;0.60;99.90;;;;;;5053849;28;20159;-75
2022/01/22 11:34:37;;;;;;;8.43;3.75;;;0.30;99.90;;;;;;5054663;28;20508;-74
2022/01/22 11:37:19;;;;;;;6.93;3.35;;;0.20;99.90;;;;;;5053001;28;20029;-76
2022/01/22 11:39:44;;;;;;;7.40;3.78;;;0.00;99.90;;;;;;5054186;28;20021;-74
2022/01/22 11:42:10;;;;;;;7.90;3.70;;;-0.10;99.90;;;;;;5057442;28;20040;-73
2022/01/22 11:45:01;;;;;;;8.63;4.22;;;-0.20;99.90;;;;;;5073949;28;20032;-73
2022/01/22 11:47:26;;;;;;;10.15;4.53;;;-0.30;99.90;;;;;;5073391;28;20032;-74
2022/01/22 11:50:13;;;;;;;8.50;4.23;;;-0.40;99.90;;;;;;5053513;28;20500;-73
2022/01/22 11:52:41;;;;;;;11.77;5.45;;;-0.30;99.90;;;;;;5069154;28;20350;-73
2022/01/22 11:55:15;;;;;;;11.05;6.30;;;-0.20;99.90;;;;;;5052968;28;20021;-73
2022/01/22 11:57:44;;;;;;;12.55;6.30;;;-0.20;99.90;;;;;;5053557;28;20115;-73
2022/01/22 12:00:23;;;;;;;11.63;5.93;;;-0.10;99.90;;;;;;5054775;28;20025;-73
2022/01/22 12:03:07;;;;;;;13.35;5.28;;;0.00;99.90;;;;;;5072622;28;20729;-74
2022/01/22 12:05:33;;;;;;;8.38;3.30;;;0.10;99.90;;;;;;5089054;28;20092;-74
2022/01/22 12:08:00;;;;;;;4.55;2.28;;;0.00;99.90;;;;;;5073476;28;20037;-74
2022/01/22 12:10:43;;;;;;;4.88;1.45;;;-0.40;99.90;;;;;;5065642;28;20036;-74
2022/01/22 12:16:07;;;;;;;3.95;1.90;;;-1.00;99.90;;;;;;5053483;28;20040;-75
2022/01/22 12:18:38;;;;;;;3.45;1.92;;;-0.80;99.90;;;;;;5053041;28;20029;-73
2022/01/22 12:23:32;;;;;;;3.92;1.50;;;-0.80;99.90;;;;;;5073582;28;20032;-73
2022/01/22 12:26:02;;;;;;;3.57;1.70;;;-0.80;99.90;;;;;;5073312;28;20032;-74
2022/01/22 12:28:42;;;;;;;3.90;1.60;;;-0.90;99.90;;;;;;5053151;28;20068;-74
2022/01/22 12:31:10;;;;;;;5.72;1.58;;;-0.90;99.90;;;;;;5053313;28;20652;-74
2022/01/22 12:33:38;;;;;;;3.05;1.10;;;-1.00;99.90;;;;;;5068193;28;20358;-73
2022/01/22 12:36:18;;;;;;;3.00;1.52;;;-1.00;99.90;;;;;;5052791;28;20025;-74
2022/01/22 12:38:49;;;;;;;3.53;1.42;;;-1.10;99.90;;;;;;5068177;28;20057;-73
2022/01/22 12:44:19;;;;;;;3.80;1.92;;;-1.20;99.90;;;;;;5053910;28;20045;-74
2022/01/22 12:46:45;;;;;;;5.80;2.20;;;-1.10;99.90;;;;;;5088239;28;20025;-74
2022/01/22 12:49:14;;;;;;;6.03;2.13;;;-1.10;99.90;;;;;;5072599;28;20048;-73
2022/01/22 12:51:41;;;;;;;4.63;2.15;;;-1.10;99.90;;;;;;5072365;28;20031;-74
2022/01/22 12:54:06;;;;;;;3.20;2.03;;;-1.00;99.90;;;;;;5062408;28;20033;-75
2022/01/22 12:56:49;;;;;;;4.00;2.20;;;-1.00;99.90;;;;;;5072602;28;20061;-75
2022/01/22 12:59:15;;;;;;;6.05;2.65;;;-1.00;99.90;;;;;;5068578;28;20017;-75
2022/01/22 13:01:46;;;;;;;7.77;2.40;;;-1.00;99.90;;;;;;5052394;28;20124;-73
2022/01/22 13:04:12;;;;;;;6.72;2.15;;;-1.00;99.90;;;;;;5052574;28;20036;-74
2022/01/22 13:06:50;;;;;;;5.07;2.35;;;-1.00;99.90;;;;;;5051008;28;20100;-74
2022/01/22 13:09:16;;;;;;;7.57;2.58;;;-0.90;99.90;;;;;;5062917;28;20032;-75
2022/01/22 13:11:50;;;;;;;3.90;2.00;;;-0.90;99.90;;;;;;5087605;28;20028;-72
2022/01/22 13:14:30;;;;;;;5.90;2.70;;;-0.90;99.90;;;;;;5072073;28;20037;-73
2022/01/22 13:16:56;;;;;;;4.45;2.30;;;-0.80;99.90;;;;;;5085886;28;20028;-73
2022/01/22 13:19:28;;;;;;;5.07;2.33;;;-0.70;99.90;;;;;;5052279;28;20624;-74
2022/01/22 13:22:00;;;;;;;5.30;2.25;;;-0.70;99.90;;;;;;5051937;28;20021;-74
2022/01/22 13:24:29;;;;;;;6.40;2.63;;;-0.70;99.90;;;;;;5051979;28;20036;-73
2022/01/22 13:27:12;;;;;;;4.75;2.58;;;-0.60;99.90;;;;;;5060039;28;20048;-73
2022/01/22 13:29:44;;;;;;;5.20;2.75;;;-0.60;99.90;;;;;;5072687;28;20102;-73
2022/01/22 13:40:46;;;;;;;5.70;3.25;;;-0.60;99.90;;;;;;5051866;28;20033;-73
2022/01/22 13:49:04;;;;;;;6.80;2.80;;;-0.60;99.90;;;;;;5051551;28;20130;-74
2022/01/22 13:51:31;;;;;;;6.25;2.85;;;-0.60;99.90;;;;;;5051414;28;20418;-74
2022/01/22 13:53:57;;;;;;;;;;;-0.70;99.90;;;;;;5066967;28;20088;-74
2022/01/22 13:56:51;;;;;;;6.45;2.53;;;-0.80;99.90;;;;;;5068011;28;20011;-74
2022/01/22 13:59:18;;;;;;;5.40;2.40;;;-0.90;99.90;;;;;;5086922;28;20032;-75
2022/01/22 14:04:16;;;;;;;6.93;3.17;;;-1.00;99.90;;;;;;5062279;28;20044;-74
2022/01/22 14:06:42;;;;;;;7.95;3.03;;;-1.00;99.90;;;;;;5051311;28;20059;-74
2022/01/22 14:09:19;;;;;;;7.15;3.28;;;-1.10;99.90;;;;;;5051485;28;20068;-74
2022/01/22 14:12:03;;;;;;;7.90;3.47;;;-1.20;99.90;;;;;;5051335;28;20017;-74
2022/01/22 14:14:32;;;;;;;6.68;3.15;;;-1.20;99.90;;;;;;5060421;28;20064;-74
2022/01/22 14:17:13;;;;;;;5.68;2.92;;;-1.30;99.90;;;;;;5071460;28;20364;-75
2022/01/22 14:19:39;;;;;;;6.40;2.80;;;-1.30;99.90;;;;;;5075138;28;20032;-75
2022/01/22 14:22:04;;;;;;;5.10;2.37;;;-1.30;99.90;;;;;;5075349;28;20033;-73
2022/01/22 14:24:31;;;;;;;7.17;2.50;;;-1.30;99.90;;;;;;5071362;28;20041;-74
2022/01/22 14:26:57;;;;;;;6.55;2.17;;;-1.40;99.90;;;;;;5055278;28;20048;-74
2022/01/22 14:29:23;;;;;;;4.47;2.33;;;-1.40;99.90;;;;;;5053358;28;20033;-74
2022/01/22 14:31:50;;;;;;;4.15;2.13;;;-1.40;99.90;;;;;;5054270;28;20788;-74
2022/01/22 14:34:38;;;;;;;3.75;1.95;;;-1.50;99.90;;;;;;5054708;28;20037;-75
2022/01/22 14:37:05;;;;;;;5.95;2.38;;;-1.50;99.90;;;;;;5053611;28;20024;-74
2022/01/22 14:45:31;;;;;;;2.72;1.50;;;-1.70;99.90;;;;;;5055063;28;20044;-76
2022/01/22 14:47:58;;;;;;;3.45;1.65;;;-1.70;99.90;;;;;;5053244;28;20453;-73
2022/01/22 14:50:25;;;;;;;3.78;1.95;;;-1.60;99.90;;;;;;5053834;28;20086;-74
2022/01/22 14:52:59;;;;;;;4.28;1.80;;;-1.80;99.90;;;;;;5054705;28;20473;-73
2022/01/22 14:55:27;;;;;;;3.58;1.83;;;-1.70;99.90;;;;;;5054531;28;20033;-74
2022/01/22 14:57:53;;;;;;;4.13;2.00;;;-1.70;99.90;;;;;;5054588;28;20432;-74
2022/01/22 15:00:20;;;;;;;3.20;2.05;;;-1.60;99.90;;;;;;5054201;28;20043;-74
2022/01/22 15:02:46;;;;;;;;;;;-1.60;99.90;;;;;;5055043;28;20029;-73
2022/01/22 15:05:13;;;;;;;3.58;1.98;;;-1.60;99.90;;;;;;5054422;28;19908;-75
2022/01/22 15:07:41;;;;;;;5.57;2.38;;;-1.60;99.90;;;;;;5053055;28;20456;-74
2022/01/22 15:10:09;;;;;;;5.68;2.25;;;-1.70;99.90;;;;;;5054591;28;20523;-73
2022/01/22 15:12:36;;;;;;;4.70;2.25;;;-1.70;99.90;;;;;;5054407;28;20043;-73
2022/01/22 15:15:03;;;;;;;4.25;2.20;;;-1.60;99.90;;;;;;5069751;28;20040;-74